createdAt,value
2023-03-08T22:10:59.385Z,100977.59
2023-03-08T22:12:06.160Z,100985.28
2023-03-08T22:13:16.010Z,100981.09
2023-03-08T22:14:21.409Z,100986.94
2023-03-08T22:15:29.581Z,100993.22
2023-03-08T22:16:35.058Z,100990.50
2023-03-08T22:17:41.993Z,100984.63
2023-03-08T22:18:48.054Z,100992.78
2023-03-08T22:19:55.450Z,100993.38
2023-03-08T22:21:01.184Z,100994.03
2023-03-08T22:22:07.905Z,100994.03
2023-03-08T22:23:14.630Z,100994.03
2023-03-08T22:24:21.970Z,101002.38
2023-03-08T22:25:28.671Z,100990.66
2023-03-08T22:26:35.909Z,101006.34
2023-03-08T22:27:42.885Z,100996.53
2023-03-08T22:28:48.386Z,101001.75
2023-03-08T22:29:55.113Z,101007.00
2023-03-08T22:31:01.787Z,101002.84
2023-03-08T22:32:09.141Z,101009.72
2023-03-08T22:33:15.907Z,101007.19
2023-03-08T22:34:21.303Z,101010.31
2023-03-08T22:35:28.105Z,101009.69
2023-03-08T22:36:33.477Z,101009.06
2023-03-08T22:37:40.281Z,101015.56
2023-03-08T22:38:45.657Z,101019.34
2023-03-08T22:39:52.826Z,101013.91
2023-03-08T22:41:00.067Z,101016.81
2023-03-08T22:42:08.559Z,101016.81
2023-03-08T22:43:14.981Z,101017.88
2023-03-08T22:44:21.735Z,101015.78
2023-03-08T22:45:27.176Z,101017.47
2023-03-08T22:46:34.364Z,101023.09
2023-03-08T22:47:39.856Z,101022.47
2023-03-08T22:48:47.313Z,101017.47
2023-03-08T22:49:54.692Z,101021.66
2023-03-08T22:51:10.317Z,101026.84
2023-03-08T22:52:18.252Z,101015.59
2023-03-08T22:53:24.281Z,101025.41
2023-03-08T22:54:31.668Z,101026.22
2023-03-08T22:55:38.437Z,101030.84
2023-03-08T22:56:49.887Z,101039.81
2023-03-08T22:57:57.245Z,101034.78
2023-03-08T22:59:04.600Z,101031.84
2023-03-08T23:00:15.810Z,101043.56
2023-03-08T23:01:26.012Z,101047.31
2023-03-08T23:02:35.357Z,101041.66
2023-03-08T23:03:43.513Z,101045.44
2023-03-08T23:04:50.738Z,101045.84
2023-03-08T23:05:57.919Z,101053.19
2023-03-08T23:07:09.285Z,101042.56
2023-03-08T23:08:16.602Z,101044.03
2023-03-08T23:09:25.754Z,101052.59
2023-03-08T23:10:33.432Z,101053.00
2023-03-08T23:11:40.978Z,101052.16
2023-03-08T23:12:48.163Z,101053.84
2023-03-08T23:14:03.182Z,101065.94
2023-03-08T23:15:21.176Z,101058.41
2023-03-08T23:16:26.801Z,101066.34
2023-03-08T23:17:33.713Z,101070.97
2023-03-08T23:18:39.174Z,101065.31
2023-03-08T23:19:46.588Z,101064.09
2023-03-08T23:20:52.008Z,101064.69
2023-03-08T23:21:59.233Z,101068.25
2023-03-08T23:23:04.551Z,101069.72
2023-03-08T23:24:11.701Z,101063.25
2023-03-08T23:25:17.090Z,101071.16
2023-03-08T23:26:28.059Z,101077.84
2023-03-08T23:27:34.368Z,101065.53
2023-03-08T23:28:41.560Z,101067.19
2023-03-08T23:29:51.605Z,101075.97
2023-03-08T23:31:00.593Z,101076.56
2023-03-08T23:32:10.126Z,101071.34
2023-03-08T23:33:15.665Z,101078.88
2023-03-08T23:34:23.611Z,101082.44
2023-03-08T23:35:30.924Z,101087.44
2023-03-08T23:36:39.457Z,101082.22
2023-03-08T23:37:49.646Z,101092.25
2023-03-08T23:38:58.137Z,101095.00
2023-03-08T23:40:06.030Z,101095.41
2023-03-08T23:41:13.023Z,101098.75
2023-03-08T23:42:26.353Z,101098.13
2023-03-08T23:43:35.454Z,101095.00
2023-03-08T23:44:42.679Z,101099.81
2023-03-08T23:45:52.154Z,101102.28
2023-03-08T23:46:57.775Z,101101.84
2023-03-08T23:48:05.759Z,101100.63
2023-03-08T23:49:12.341Z,101104.78
2023-03-08T23:50:19.162Z,101101.66
2023-03-08T23:51:25.135Z,101108.75
2023-03-08T23:52:31.937Z,101112.09
2023-03-08T23:53:39.681Z,101115.66
2023-03-08T23:54:52.195Z,101113.38
2023-03-08T23:55:58.647Z,101117.31
2023-03-08T23:57:10.726Z,101119.84
2023-03-08T23:58:17.405Z,101126.13
2023-03-08T23:59:28.621Z,101130.28
